| Date | Time | Temp. (oF) | Dew Point (oF) | Rel. Hum. (%) | Press. (in.) | Wind Dir. (deg.) | Wind Speed (mph) | Hourly Rainfall (i n.) |
|
|---|---|---|---|---|---|---|---|---|---|
| 1 | 05/27 | 24:00 | 58 | 43 | 58 | 30.04 | 300 | 4 | 0.00 |
| 2 | 05/26 | 23:00 | 58 | 42 | 57 | 30.02 | 310 | 1 | 0.00 |
| 3 | 05/26 | 22:00 | 60 | 42 | 53 | 30.02 | 320 | 2 | 0.00 |
| 4 | 05/26 | 21:00 | 62 | 43 | 51 | 29.99 | 270 | 10 | 0.00 |
| 5 | 05/26 | 20:00 | 64 | 44 | 49 | 29.96 | 30 | 2 | 0.00 |
| 6 | 05/26 | 19:00 | 67 | 45 | 47 | 29.93 | 10 | 2 | 0.00 |
| 7 | 05/26 | 18:00 | 69 | 44 | 42 | 29.92 | 270 | 2 | 0.00 |
| 8 | 05/26 | 17:00 | 72 | 45 | 39 | 29.91 | 10 | 6 | 0.00 |
| 9 | 05/26 | 16:00 | 72 | 44 | 37 | 29.89 | 310 | 6 | 0.00 |
| 10 | 05/26 | 15:00 | 73 | 41 | 33 | 29.90 | 280 | 10 | 0.00 |
| 11 | 05/26 | 14:00 | 75 | 44 | 34 | 29.90 | 230 | 7 | 0.00 |
| 12 | 05/26 | 13:00 | 76 | 44 | 33 | 29.89 | 290 | 7 | 0.00 |
| 13 | 05/26 | 12:00 | 75 | 43 | 33 | 29.91 | 330 | 9 | 0.00 |
| 14 | 05/26 | 11:00 | 74 | 44 | 35 | 29.91 | 270 | 2 | 0.00 |
| 15 | 05/26 | 10:00 | 67 | 44 | 45 | 29.93 | 270 | 9 | 0.00 |
| 16 | 05/26 | 09:00 | 63 | 42 | 48 | 29.93 | 290 | 10 | 0.00 |
| 17 | 05/26 | 08:00 | 59 | 41 | 52 | 29.91 | 270 | 1 | 0.00 |
| 18 | 05/26 | 07:00 | 57 | 39 | 52 | 29.92 | 320 | 2 | 0.00 |
| 19 | 05/26 | 06:00 | 57 | 38 | 51 | 29.94 | 140 | 1 | 0.00 |
| 20 | 05/26 | 05:00 | 57 | 37 | 48 | 29.95 | 150 | 2 | 0.00 |
| 21 | 05/26 | 04:00 | 59 | 38 | 46 | 29.94 | 150 | 1 | 0.00 |
| 22 | 05/26 | 03:00 | 59 | 38 | 47 | 29.95 | 230 | 1 | 0.00 |
| 23 | 05/26 | 02:00 | 60 | 37 | 44 | 29.96 | 150 | 2 | 0.00 |
| 24 | 05/26 | 01:00 | 59 | 37 | 45 | 29.97 | 90 | 1 | 0.00 |